createdAt,value
2022-11-03T00:04:09.868Z,7.70
2022-11-03T00:10:11.678Z,7.60
2022-11-03T00:16:13.739Z,7.40
2022-11-03T00:22:15.551Z,7.30
2022-11-03T00:28:17.356Z,7.20
2022-11-03T00:34:19.429Z,7.30
2022-11-03T00:40:21.214Z,7.40
2022-11-03T00:46:24.799Z,7.30
2022-11-03T00:52:26.672Z,7.40
2022-11-03T00:58:28.822Z,7.50
2022-11-03T01:04:49.177Z,7.50
2022-11-03T01:11:09.555Z,7.60
2022-11-03T01:17:23.425Z,7.70
2022-11-03T01:23:25.254Z,7.60
2022-11-03T01:29:27.148Z,7.50
2022-11-03T01:35:29.024Z,7.50
2022-11-03T01:41:30.886Z,7.40
2022-11-03T01:47:34.472Z,7.50
2022-11-03T01:53:38.292Z,7.50
2022-11-03T01:59:40.973Z,7.40
2022-11-03T02:05:46.090Z,7.50
2022-11-03T02:12:06.437Z,7.60
2022-11-03T02:18:09.817Z,7.60
2022-11-03T02:24:54.406Z,7.60
2022-11-03T02:31:11.162Z,7.60
2022-11-03T02:37:25.790Z,7.70
2022-11-03T02:43:29.260Z,7.70
2022-11-03T02:49:31.125Z,7.70
2022-11-03T02:55:59.010Z,7.70
2022-11-03T03:02:08.790Z,7.80
2022-11-03T03:08:13.051Z,7.90
2022-11-03T03:14:19.780Z,8.00
2022-11-03T03:20:36.234Z,8.00
2022-11-03T03:26:42.876Z,8.30
2022-11-03T03:32:49.800Z,8.30
2022-11-03T03:38:56.684Z,8.20
2022-11-03T03:44:59.837Z,8.30
2022-11-03T03:51:02.682Z,8.30
2022-11-03T03:57:06.870Z,8.20
2022-11-03T04:03:29.226Z,8.10
2022-11-03T04:09:31.138Z,8.10
2022-11-03T04:15:51.747Z,8.10
2022-11-03T04:22:12.098Z,8.00
2022-11-03T04:28:15.324Z,8.00
2022-11-03T04:34:17.219Z,8.00
2022-11-03T04:40:19.230Z,7.90
2022-11-03T04:46:27.341Z,7.80
2022-11-03T04:52:29.799Z,7.80
2022-11-03T04:58:36.260Z,7.80
2022-11-03T05:04:38.198Z,7.80
2022-11-03T05:10:40.285Z,7.70
2022-11-03T05:16:43.288Z,7.70
2022-11-03T05:22:45.140Z,7.70
2022-11-03T05:28:59.964Z,7.70
2022-11-03T05:35:01.995Z,7.70
2022-11-03T05:41:08.704Z,7.60
2022-11-03T05:47:21.839Z,7.60
2022-11-03T05:53:29.150Z,7.50
2022-11-03T05:59:31.045Z,7.50
2022-11-03T06:05:34.433Z,7.60
2022-11-03T06:11:37.326Z,7.50
2022-11-03T06:17:39.259Z,7.60
2022-11-03T06:23:41.923Z,7.70
2022-11-03T06:30:06.590Z,7.70
2022-11-03T06:36:26.072Z,7.80
2022-11-03T06:42:32.226Z,7.80
2022-11-03T06:48:35.094Z,8.00
2022-11-03T06:54:37.975Z,8.00
2022-11-03T07:00:45.881Z,8.10
2022-11-03T07:06:53.520Z,8.20
2022-11-03T07:12:56.701Z,8.30
2022-11-03T07:19:04.934Z,8.40
2022-11-03T07:25:13.903Z,8.50
2022-11-03T07:31:23.203Z,8.60
2022-11-03T07:37:26.188Z,8.80
2022-11-03T07:43:34.831Z,8.90
2022-11-03T07:49:36.698Z,9.00
2022-11-03T07:55:38.529Z,9.10
2022-11-03T08:01:59.820Z,9.20
2022-11-03T08:08:01.813Z,9.30
2022-11-03T08:14:03.881Z,9.30
2022-11-03T08:20:06.160Z,9.40
2022-11-03T08:26:08.668Z,9.50
2022-11-03T08:32:10.609Z,9.50
2022-11-03T08:38:12.498Z,9.70
2022-11-03T08:44:14.316Z,9.80
2022-11-03T08:50:16.246Z,9.90
2022-11-03T08:56:21.904Z,10.10
2022-11-03T09:02:24.521Z,10.20
2022-11-03T09:14:48.215Z,10.60
2022-11-03T09:20:50.333Z,10.80
2022-11-03T09:26:52.292Z,10.90
2022-11-03T09:32:54.176Z,11.20
2022-11-03T09:38:55.979Z,11.50
2022-11-03T09:44:57.814Z,11.70
2022-11-03T09:50:59.853Z,11.80
2022-11-03T09:57:13.140Z,12.00
2022-11-03T10:03:17.249Z,12.30
2022-11-03T10:09:20.755Z,12.70
2022-11-03T10:15:24.630Z,13.00
2022-11-03T10:21:30.917Z,13.30
2022-11-03T10:27:32.806Z,13.20
2022-11-03T10:33:41.703Z,13.20
2022-11-03T10:39:47.719Z,13.30
2022-11-03T10:45:49.905Z,13.60
2022-11-03T10:51:54.321Z,14.00
2022-11-03T10:57:58.578Z,14.40
2022-11-03T11:04:00.505Z,14.90
2022-11-03T11:10:13.370Z,14.80
2022-11-03T11:16:51.072Z,14.60
2022-11-03T11:22:52.927Z,14.50
2022-11-03T11:29:10.270Z,14.40
2022-11-03T11:35:25.075Z,14.50
2022-11-03T11:42:04.470Z,14.60
2022-11-03T11:48:19.075Z,14.60
2022-11-03T11:54:21.388Z,14.50
2022-11-03T12:00:26.574Z,14.30
2022-11-03T12:06:39.893Z,14.30
2022-11-03T12:12:41.770Z,14.30
2022-11-03T12:18:50.181Z,14.30
2022-11-03T12:24:56.452Z,14.40
2022-11-03T12:37:00.104Z,14.30
2022-11-03T12:43:02.009Z,14.30
2022-11-03T12:49:03.926Z,14.40
2022-11-03T12:55:06.100Z,14.40
2022-11-03T13:01:08.361Z,14.30
2022-11-03T13:07:10.281Z,14.20
2022-11-03T13:13:12.740Z,14.20
2022-11-03T13:26:50.160Z,14.10
2022-11-03T13:32:52.425Z,14.00
2022-11-03T13:38:54.330Z,13.80
2022-11-03T13:44:57.339Z,13.70
2022-11-03T13:51:00.239Z,13.50
2022-11-03T14:09:48.164Z,13.10
2022-11-03T14:16:12.282Z,13.10
2022-11-03T14:50:54.805Z,12.70
2022-11-03T14:56:57.598Z,12.60
2022-11-03T15:02:59.653Z,12.50
2022-11-03T15:09:02.072Z,12.40
2022-11-03T15:15:04.125Z,12.30
2022-11-03T15:21:06.270Z,12.20
2022-11-03T15:27:08.126Z,12.20
2022-11-03T15:33:10.340Z,12.10
2022-11-03T15:39:13.379Z,12.00
2022-11-03T15:45:15.595Z,11.90
2022-11-03T15:51:17.532Z,11.80
2022-11-03T15:57:19.470Z,11.80
2022-11-03T16:03:21.356Z,11.70
2022-11-03T16:09:23.594Z,11.60
2022-11-03T16:15:25.652Z,11.50
2022-11-03T16:21:36.708Z,11.50
2022-11-03T16:27:38.563Z,11.40
2022-11-03T16:33:40.348Z,11.30
2022-11-03T16:39:42.504Z,11.30
2022-11-03T16:45:44.385Z,11.30
2022-11-03T16:51:46.219Z,11.30
2022-11-03T16:57:48.097Z,11.30
2022-11-03T17:03:51.742Z,11.40
2022-11-03T17:09:53.598Z,11.30
2022-11-03T17:15:55.543Z,11.30
2022-11-03T17:21:57.384Z,11.30
2022-11-03T17:28:02.531Z,11.20
2022-11-03T17:34:04.734Z,11.20
2022-11-03T17:40:19.035Z,11.30
2022-11-03T17:46:21.160Z,11.30
2022-11-03T17:52:28.283Z,11.20
2022-11-03T17:58:34.406Z,11.20
2022-11-03T18:04:36.244Z,11.20
2022-11-03T18:10:43.569Z,11.20
2022-11-03T18:16:46.159Z,11.20
2022-11-03T18:22:48.491Z,11.20
2022-11-03T18:28:50.580Z,11.20
2022-11-03T18:34:52.889Z,11.30
2022-11-03T18:40:55.211Z,11.30
2022-11-03T18:46:58.184Z,11.40
2022-11-03T18:53:00.217Z,11.40
2022-11-03T18:59:02.154Z,11.40
2022-11-03T19:05:04.189Z,11.50
2022-11-03T19:11:06.124Z,11.50
2022-11-03T19:17:22.906Z,11.50
2022-11-03T19:23:25.518Z,11.50
2022-11-03T19:29:30.993Z,11.60
2022-11-03T19:35:34.546Z,11.50
2022-11-03T19:41:55.216Z,11.50
2022-11-03T19:54:22.537Z,11.50
2022-11-03T20:00:24.381Z,11.50
2022-11-03T20:06:26.223Z,11.50
2022-11-03T20:12:30.778Z,11.50
2022-11-03T20:18:32.871Z,11.50
2022-11-03T20:24:35.502Z,11.50
2022-11-03T20:30:37.322Z,11.50
2022-11-03T20:36:39.710Z,11.50
2022-11-03T20:42:42.227Z,11.40
2022-11-03T20:48:44.134Z,11.40
2022-11-03T20:54:46.011Z,11.40
2022-11-03T21:00:48.883Z,11.40
2022-11-03T21:06:51.397Z,11.40
2022-11-03T21:12:53.878Z,11.40
2022-11-03T21:19:14.460Z,11.40
2022-11-03T21:25:18.827Z,11.40
2022-11-03T21:31:21.367Z,11.40
2022-11-03T21:37:23.187Z,11.30
2022-11-03T21:43:43.418Z,11.20
2022-11-03T21:49:45.338Z,11.10
2022-11-03T21:55:48.900Z,11.00
2022-11-03T22:01:54.957Z,10.90
2022-11-03T22:07:56.859Z,10.80
2022-11-03T22:14:00.954Z,10.90
2022-11-03T22:20:21.328Z,10.80
2022-11-03T22:26:41.579Z,10.80
2022-11-03T22:32:44.086Z,10.80
2022-11-03T22:39:04.347Z,10.80
2022-11-03T22:45:25.361Z,10.80
2022-11-03T22:51:27.201Z,10.80
2022-11-03T22:57:29.017Z,10.70
2022-11-03T23:03:32.687Z,10.80
2022-11-03T23:09:34.468Z,10.80
2022-11-03T23:15:38.344Z,10.80
2022-11-03T23:21:40.299Z,10.90
2022-11-03T23:27:42.129Z,10.90
2022-11-03T23:33:44.350Z,11.00
2022-11-03T23:39:46.218Z,11.10
2022-11-03T23:46:06.625Z,11.10
2022-11-03T23:52:08.515Z,11.10
2022-11-03T23:58:19.425Z,11.10
